sensor_id;sensor_type;location;lat;lon;timestamp;temperature;humidity
50560;DHT22;36510;52.610;13.468;2022-11-06T00:02:45;8.10;34.70
50560;DHT22;36510;52.610;13.468;2022-11-06T00:07:36;8.10;34.90
50560;DHT22;36510;52.610;13.468;2022-11-06T00:12:26;8.00;34.50
50560;DHT22;36510;52.610;13.468;2022-11-06T00:17:16;8.00;34.60
50560;DHT22;36510;52.610;13.468;2022-11-06T00:22:07;8.00;35.00
50560;DHT22;36510;52.610;13.468;2022-11-06T00:26:57;7.90;35.10
50560;DHT22;36510;52.610;13.468;2022-11-06T00:31:49;7.80;35.10
50560;DHT22;36510;52.610;13.468;2022-11-06T00:36:39;7.70;35.60
50560;DHT22;36510;52.610;13.468;2022-11-06T00:41:30;7.60;35.90
50560;DHT22;36510;52.610;13.468;2022-11-06T00:46:21;7.50;40.70
50560;DHT22;36510;52.610;13.468;2022-11-06T00:51:16;7.50;40.70
50560;DHT22;36510;52.610;13.468;2022-11-06T00:56:10;7.50;43.20
50560;DHT22;36510;52.610;13.468;2022-11-06T01:10:55;7.70;40.10
50560;DHT22;36510;52.610;13.468;2022-11-06T01:15:46;7.70;40.20
50560;DHT22;36510;52.610;13.468;2022-11-06T01:20:36;7.80;40.40
50560;DHT22;36510;52.610;13.468;2022-11-06T01:25:27;7.90;40.60
50560;DHT22;36510;52.610;13.468;2022-11-06T01:30:17;8.00;39.50
50560;DHT22;36510;52.610;13.468;2022-11-06T01:35:08;8.10;38.40
50560;DHT22;36510;52.610;13.468;2022-11-06T01:39:58;8.10;38.10
50560;DHT22;36510;52.610;13.468;2022-11-06T01:45:20;8.20;37.20
50560;DHT22;36510;52.610;13.468;2022-11-06T01:50:13;8.20;37.10
50560;DHT22;36510;52.610;13.468;2022-11-06T01:55:08;8.00;36.90
50560;DHT22;36510;52.610;13.468;2022-11-06T02:00:02;8.00;37.60
50560;DHT22;36510;52.610;13.468;2022-11-06T02:04:53;8.00;38.60
50560;DHT22;36510;52.610;13.468;2022-11-06T02:09:44;8.00;38.60
50560;DHT22;36510;52.610;13.468;2022-11-06T02:15:03;8.00;38.80
50560;DHT22;36510;52.610;13.468;2022-11-06T02:20:17;8.10;40.70
50560;DHT22;36510;52.610;13.468;2022-11-06T02:25:14;8.10;41.60
50560;DHT22;36510;52.610;13.468;2022-11-06T02:30:10;8.20;43.80
50560;DHT22;36510;52.610;13.468;2022-11-06T02:35:06;8.00;45.80
50560;DHT22;36510;52.610;13.468;2022-11-06T02:40:02;7.80;47.80
50560;DHT22;36510;52.610;13.468;2022-11-06T02:44:55;7.30;52.20
50560;DHT22;36510;52.610;13.468;2022-11-06T02:49:53;7.30;53.20
50560;DHT22;36510;52.610;13.468;2022-11-06T02:54:55;7.40;54.50
50560;DHT22;36510;52.610;13.468;2022-11-06T03:00:06;7.40;54.00
50560;DHT22;36510;52.610;13.468;2022-11-06T03:05:26;7.40;53.50
50560;DHT22;36510;52.610;13.468;2022-11-06T03:10:14;7.60;52.50
50560;DHT22;36510;52.610;13.468;2022-11-06T03:15:25;7.70;50.10
50560;DHT22;36510;52.610;13.468;2022-11-06T03:20:21;7.90;47.90
50560;DHT22;36510;52.610;13.468;2022-11-06T03:25:27;7.90;46.80
50560;DHT22;36510;52.610;13.468;2022-11-06T03:30:19;8.00;45.90
50560;DHT22;36510;52.610;13.468;2022-11-06T03:40:14;7.90;44.10
50560;DHT22;36510;52.610;13.468;2022-11-06T03:45:11;7.80;47.10
50560;DHT22;36510;52.610;13.468;2022-11-06T03:50:13;7.60;50.20
50560;DHT22;36510;52.610;13.468;2022-11-06T03:55:13;7.70;47.60
50560;DHT22;36510;52.610;13.468;2022-11-06T04:00:05;7.70;48.40
50560;DHT22;36510;52.610;13.468;2022-11-06T04:05:00;7.70;45.30
50560;DHT22;36510;52.610;13.468;2022-11-06T04:09:55;7.80;44.20
50560;DHT22;36510;52.610;13.468;2022-11-06T04:15:05;7.80;43.30
50560;DHT22;36510;52.610;13.468;2022-11-06T04:20:01;7.80;42.50
50560;DHT22;36510;52.610;13.468;2022-11-06T04:30:21;7.80;40.60
50560;DHT22;36510;52.610;13.468;2022-11-06T04:40:17;7.70;38.70
50560;DHT22;36510;52.610;13.468;2022-11-06T04:45:15;7.70;40.90
50560;DHT22;36510;52.610;13.468;2022-11-06T04:50:11;7.70;39.90
50560;DHT22;36510;52.610;13.468;2022-11-06T04:55:04;7.50;43.00
50560;DHT22;36510;52.610;13.468;2022-11-06T04:59:55;7.50;41.00
50560;DHT22;36510;52.610;13.468;2022-11-06T05:04:46;7.40;41.20
50560;DHT22;36510;52.610;13.468;2022-11-06T05:09:36;7.40;42.20
50560;DHT22;36510;52.610;13.468;2022-11-06T05:14:27;7.40;42.40
50560;DHT22;36510;52.610;13.468;2022-11-06T05:19:17;7.30;41.30
50560;DHT22;36510;52.610;13.468;2022-11-06T05:24:08;7.40;45.20
50560;DHT22;36510;52.610;13.468;2022-11-06T05:28:59;7.30;45.00
50560;DHT22;36510;52.610;13.468;2022-11-06T05:33:49;7.40;43.90
50560;DHT22;36510;52.610;13.468;2022-11-06T05:38:40;7.40;44.90
50560;DHT22;36510;52.610;13.468;2022-11-06T05:43:30;7.20;48.30
50560;DHT22;36510;52.610;13.468;2022-11-06T05:48:21;7.10;49.60
50560;DHT22;36510;52.610;13.468;2022-11-06T05:53:12;7.00;51.90
50560;DHT22;36510;52.610;13.468;2022-11-06T05:58:03;6.90;53.70
50560;DHT22;36510;52.610;13.468;2022-11-06T06:02:53;6.80;52.50
50560;DHT22;36510;52.610;13.468;2022-11-06T06:07:44;6.80;53.70
50560;DHT22;36510;52.610;13.468;2022-11-06T06:12:34;6.80;54.30
50560;DHT22;36510;52.610;13.468;2022-11-06T06:17:25;6.50;57.00
50560;DHT22;36510;52.610;13.468;2022-11-06T06:22:16;6.50;58.20
50560;DHT22;36510;52.610;13.468;2022-11-06T06:27:07;6.40;58.70
50560;DHT22;36510;52.610;13.468;2022-11-06T06:31:57;6.40;58.70
50560;DHT22;36510;52.610;13.468;2022-11-06T06:36:52;6.50;58.70
50560;DHT22;36510;52.610;13.468;2022-11-06T06:41:42;6.40;58.70
50560;DHT22;36510;52.610;13.468;2022-11-06T06:46:33;6.50;58.70
50560;DHT22;36510;52.610;13.468;2022-11-06T06:51:23;6.60;58.30
50560;DHT22;36510;52.610;13.468;2022-11-06T06:56:14;6.50;58.80
50560;DHT22;36510;52.610;13.468;2022-11-06T07:01:05;6.50;58.90
50560;DHT22;36510;52.610;13.468;2022-11-06T07:05:59;6.30;61.00
50560;DHT22;36510;52.610;13.468;2022-11-06T07:10:50;6.50;61.00
50560;DHT22;36510;52.610;13.468;2022-11-06T07:15:40;6.50;61.10
50560;DHT22;36510;52.610;13.468;2022-11-06T07:20:32;6.60;61.10
50560;DHT22;36510;52.610;13.468;2022-11-06T07:25:24;6.70;61.30
50560;DHT22;36510;52.610;13.468;2022-11-06T07:30:14;6.80;61.20
50560;DHT22;36510;52.610;13.468;2022-11-06T07:35:06;6.90;61.60
50560;DHT22;36510;52.610;13.468;2022-11-06T07:39:56;7.00;61.40
50560;DHT22;36510;52.610;13.468;2022-11-06T07:44:47;7.20;60.80
50560;DHT22;36510;52.610;13.468;2022-11-06T07:49:37;7.30;59.30
50560;DHT22;36510;52.610;13.468;2022-11-06T07:54:28;7.60;59.60
50560;DHT22;36510;52.610;13.468;2022-11-06T07:59:18;7.80;57.60
50560;DHT22;36510;52.610;13.468;2022-11-06T08:04:10;7.70;57.60
50560;DHT22;36510;52.610;13.468;2022-11-06T08:09:05;7.70;58.10
50560;DHT22;36510;52.610;13.468;2022-11-06T08:13:55;7.70;58.30
50560;DHT22;36510;52.610;13.468;2022-11-06T08:18:48;7.80;58.20
50560;DHT22;36510;52.610;13.468;2022-11-06T08:23:39;7.90;58.20
50560;DHT22;36510;52.610;13.468;2022-11-06T08:28:29;8.00;57.20
50560;DHT22;36510;52.610;13.468;2022-11-06T08:33:21;8.30;57.00
50560;DHT22;36510;52.610;13.468;2022-11-06T08:38:12;8.30;56.90
50560;DHT22;36510;52.610;13.468;2022-11-06T08:43:06;8.40;55.90
50560;DHT22;36510;52.610;13.468;2022-11-06T08:48:02;8.40;55.30
50560;DHT22;36510;52.610;13.468;2022-11-06T08:52:58;8.40;56.30
50560;DHT22;36510;52.610;13.468;2022-11-06T08:57:50;8.40;55.80
50560;DHT22;36510;52.610;13.468;2022-11-06T09:02:43;8.60;55.60
50560;DHT22;36510;52.610;13.468;2022-11-06T09:07:33;8.80;54.90
50560;DHT22;36510;52.610;13.468;2022-11-06T09:12:24;9.00;54.80
50560;DHT22;36510;52.610;13.468;2022-11-06T09:17:14;9.20;53.30
50560;DHT22;36510;52.610;13.468;2022-11-06T09:22:07;9.20;51.60
50560;DHT22;36510;52.610;13.468;2022-11-06T09:26:58;9.40;52.70
50560;DHT22;36510;52.610;13.468;2022-11-06T09:31:48;9.40;50.90
50560;DHT22;36510;52.610;13.468;2022-11-06T09:36:39;9.60;51.00
50560;DHT22;36510;52.610;13.468;2022-11-06T09:41:49;9.70;50.50
50560;DHT22;36510;52.610;13.468;2022-11-06T09:46:45;9.80;49.60
50560;DHT22;36510;52.610;13.468;2022-11-06T09:51:40;10.10;48.30
50560;DHT22;36510;52.610;13.468;2022-11-06T09:56:37;10.00;46.10
50560;DHT22;36510;52.610;13.468;2022-11-06T10:01:39;10.20;47.50
50560;DHT22;36510;52.610;13.468;2022-11-06T10:06:31;10.40;44.60
50560;DHT22;36510;52.610;13.468;2022-11-06T10:12:01;10.30;44.20
50560;DHT22;36510;52.610;13.468;2022-11-06T10:26:57;10.70;44.00
50560;DHT22;36510;52.610;13.468;2022-11-06T10:32:28;10.90;42.40
50560;DHT22;36510;52.610;13.468;2022-11-06T10:37:27;11.00;42.10
50560;DHT22;36510;52.610;13.468;2022-11-06T10:42:21;11.20;41.40
50560;DHT22;36510;52.610;13.468;2022-11-06T10:47:30;11.30;39.30
50560;DHT22;36510;52.610;13.468;2022-11-06T10:52:35;11.40;39.10
50560;DHT22;36510;52.610;13.468;2022-11-06T10:57:42;11.20;40.50
50560;DHT22;36510;52.610;13.468;2022-11-06T11:02:39;11.40;39.20
50560;DHT22;36510;52.610;13.468;2022-11-06T11:07:33;11.60;38.20
50560;DHT22;36510;52.610;13.468;2022-11-06T11:12:28;11.50;37.20
50560;DHT22;36510;52.610;13.468;2022-11-06T11:17:20;11.60;38.40
50560;DHT22;36510;52.610;13.468;2022-11-06T11:22:19;11.70;36.90
50560;DHT22;36510;52.610;13.468;2022-11-06T11:27:13;11.70;36.50
50560;DHT22;36510;52.610;13.468;2022-11-06T11:32:05;11.70;37.60
50560;DHT22;36510;52.610;13.468;2022-11-06T11:37:02;11.60;36.80
50560;DHT22;36510;52.610;13.468;2022-11-06T11:41:53;11.70;34.80
50560;DHT22;36510;52.610;13.468;2022-11-06T11:46:51;11.70;34.40
50560;DHT22;36510;52.610;13.468;2022-11-06T11:51:43;11.60;35.50
50560;DHT22;36510;52.610;13.468;2022-11-06T11:56:45;11.60;34.00
50560;DHT22;36510;52.610;13.468;2022-11-06T12:01:39;12.00;33.90
50560;DHT22;36510;52.610;13.468;2022-11-06T12:06:30;12.20;31.80
50560;DHT22;36510;52.610;13.468;2022-11-06T12:11:23;12.40;33.00
50560;DHT22;36510;52.610;13.468;2022-11-06T12:16:17;12.50;31.30
50560;DHT22;36510;52.610;13.468;2022-11-06T12:21:20;12.90;29.70
50560;DHT22;36510;52.610;13.468;2022-11-06T12:26:33;12.80;27.70
50560;DHT22;36510;52.610;13.468;2022-11-06T12:31:40;12.70;29.60
50560;DHT22;36510;52.610;13.468;2022-11-06T12:36:32;12.60;29.50
50560;DHT22;36510;52.610;13.468;2022-11-06T12:41:31;12.80;29.30
50560;DHT22;36510;52.610;13.468;2022-11-06T12:46:47;13.00;27.70
50560;DHT22;36510;52.610;13.468;2022-11-06T12:52:01;13.20;27.10
50560;DHT22;36510;52.610;13.468;2022-11-06T13:07:33;13.30;26.60
50560;DHT22;36510;52.610;13.468;2022-11-06T13:13:14;12.90;28.40
50560;DHT22;36510;52.610;13.468;2022-11-06T13:18:15;13.10;28.00
50560;DHT22;36510;52.610;13.468;2022-11-06T13:33:35;12.80;27.60
50560;DHT22;36510;52.610;13.468;2022-11-06T13:38:32;12.80;27.90
50560;DHT22;36510;52.610;13.468;2022-11-06T13:43:36;12.70;27.70
50560;DHT22;36510;52.610;13.468;2022-11-06T13:48:37;12.80;28.20
50560;DHT22;36510;52.610;13.468;2022-11-06T13:53:37;12.80;27.80
50560;DHT22;36510;52.610;13.468;2022-11-06T14:09:17;12.60;28.80
50560;DHT22;36510;52.610;13.468;2022-11-06T14:14:22;12.30;28.50
50560;DHT22;36510;52.610;13.468;2022-11-06T14:19:24;12.30;28.30
50560;DHT22;36510;52.610;13.468;2022-11-06T14:24:29;12.30;28.80
50560;DHT22;36510;52.610;13.468;2022-11-06T14:34:28;12.40;27.60
50560;DHT22;36510;52.610;13.468;2022-11-06T14:44:46;12.30;28.10
50560;DHT22;36510;52.610;13.468;2022-11-06T14:49:41;12.30;27.30
50560;DHT22;36510;52.610;13.468;2022-11-06T14:54:36;12.30;27.60
50560;DHT22;36510;52.610;13.468;2022-11-06T14:59:34;12.00;27.70
50560;DHT22;36510;52.610;13.468;2022-11-06T15:04:28;11.80;28.40
50560;DHT22;36510;52.610;13.468;2022-11-06T15:19:13;11.70;29.00
50560;DHT22;36510;52.610;13.468;2022-11-06T15:24:23;11.70;29.00
50560;DHT22;36510;52.610;13.468;2022-11-06T15:29:21;11.70;29.00
50560;DHT22;36510;52.610;13.468;2022-11-06T15:34:21;11.70;29.00
50560;DHT22;36510;52.610;13.468;2022-11-06T15:39:30;11.60;28.90
50560;DHT22;36510;52.610;13.468;2022-11-06T15:44:22;11.50;29.00
50560;DHT22;36510;52.610;13.468;2022-11-06T15:49:18;11.30;29.80
50560;DHT22;36510;52.610;13.468;2022-11-06T15:54:12;11.30;30.00
50560;DHT22;36510;52.610;13.468;2022-11-06T15:59:05;11.30;29.90
50560;DHT22;36510;52.610;13.468;2022-11-06T16:03:56;11.40;30.10
50560;DHT22;36510;52.610;13.468;2022-11-06T16:08:48;11.40;30.70
50560;DHT22;36510;52.610;13.468;2022-11-06T16:13:40;11.40;30.50
50560;DHT22;36510;52.610;13.468;2022-11-06T16:18:38;11.50;29.90
50560;DHT22;36510;52.610;13.468;2022-11-06T16:23:35;11.50;29.70
50560;DHT22;36510;52.610;13.468;2022-11-06T16:28:28;11.60;29.20
50560;DHT22;36510;52.610;13.468;2022-11-06T16:33:21;11.60;29.00
50560;DHT22;36510;52.610;13.468;2022-11-06T16:43:12;11.30;29.90
50560;DHT22;36510;52.610;13.468;2022-11-06T16:52:57;11.10;31.20
50560;DHT22;36510;52.610;13.468;2022-11-06T16:57:50;11.20;31.10
50560;DHT22;36510;52.610;13.468;2022-11-06T17:02:55;11.10;30.70
50560;DHT22;36510;52.610;13.468;2022-11-06T17:07:48;10.90;31.30
50560;DHT22;36510;52.610;13.468;2022-11-06T17:12:53;10.80;32.20
50560;DHT22;36510;52.610;13.468;2022-11-06T17:17:44;10.80;32.20
50560;DHT22;36510;52.610;13.468;2022-11-06T17:22:34;10.80;32.00
50560;DHT22;36510;52.610;13.468;2022-11-06T17:27:25;10.80;31.80
50560;DHT22;36510;52.610;13.468;2022-11-06T17:32:15;10.80;31.80
50560;DHT22;36510;52.610;13.468;2022-11-06T17:37:08;10.80;31.80
50560;DHT22;36510;52.610;13.468;2022-11-06T17:41:59;10.70;31.50
50560;DHT22;36510;52.610;13.468;2022-11-06T17:46:49;10.80;32.10
50560;DHT22;36510;52.610;13.468;2022-11-06T17:51:40;10.70;31.50
50560;DHT22;36510;52.610;13.468;2022-11-06T17:56:40;10.70;31.00
50560;DHT22;36510;52.610;13.468;2022-11-06T18:01:31;10.70;31.30
50560;DHT22;36510;52.610;13.468;2022-11-06T18:06:21;10.80;31.10
50560;DHT22;36510;52.610;13.468;2022-11-06T18:11:12;10.80;30.80
50560;DHT22;36510;52.610;13.468;2022-11-06T18:16:04;10.80;30.50
50560;DHT22;36510;52.610;13.468;2022-11-06T18:21:03;10.80;30.20
50560;DHT22;36510;52.610;13.468;2022-11-06T18:25:58;10.60;30.50
50560;DHT22;36510;52.610;13.468;2022-11-06T18:30:49;10.60;31.10
50560;DHT22;36510;52.610;13.468;2022-11-06T18:35:39;10.30;32.10
50560;DHT22;36510;52.610;13.468;2022-11-06T18:40:30;10.10;33.70
50560;DHT22;36510;52.610;13.468;2022-11-06T18:45:20;9.80;36.90
50560;DHT22;36510;52.610;13.468;2022-11-06T18:50:11;9.70;37.90
50560;DHT22;36510;52.610;13.468;2022-11-06T18:55:01;9.60;38.30
50560;DHT22;36510;52.610;13.468;2022-11-06T18:59:52;9.50;38.90
50560;DHT22;36510;52.610;13.468;2022-11-06T19:04:43;9.50;40.80
50560;DHT22;36510;52.610;13.468;2022-11-06T19:09:33;9.50;40.40
50560;DHT22;36510;52.610;13.468;2022-11-06T19:14:24;9.30;40.50
50560;DHT22;36510;52.610;13.468;2022-11-06T19:19:14;9.20;41.70
50560;DHT22;36510;52.610;13.468;2022-11-06T19:24:05;9.20;41.50
50560;DHT22;36510;52.610;13.468;2022-11-06T19:28:55;9.20;41.60
50560;DHT22;36510;52.610;13.468;2022-11-06T19:33:47;9.10;42.80
50560;DHT22;36510;52.610;13.468;2022-11-06T19:38:37;8.90;44.30
50560;DHT22;36510;52.610;13.468;2022-11-06T19:43:28;8.90;44.70
50560;DHT22;36510;52.610;13.468;2022-11-06T19:48:21;8.70;45.80
50560;DHT22;36510;52.610;13.468;2022-11-06T19:53:15;8.70;46.80
50560;DHT22;36510;52.610;13.468;2022-11-06T19:58:06;8.70;47.10
50560;DHT22;36510;52.610;13.468;2022-11-06T20:02:57;8.80;46.90
50560;DHT22;36510;52.610;13.468;2022-11-06T20:07:47;8.90;45.90
50560;DHT22;36510;52.610;13.468;2022-11-06T20:12:38;8.70;47.00
50560;DHT22;36510;52.610;13.468;2022-11-06T20:17:28;8.70;47.50
50560;DHT22;36510;52.610;13.468;2022-11-06T20:22:19;8.60;48.50
50560;DHT22;36510;52.610;13.468;2022-11-06T20:27:09;8.60;49.00
50560;DHT22;36510;52.610;13.468;2022-11-06T20:32:00;8.50;49.60
50560;DHT22;36510;52.610;13.468;2022-11-06T20:36:50;8.40;49.80
50560;DHT22;36510;52.610;13.468;2022-11-06T20:41:41;8.30;52.00
50560;DHT22;36510;52.610;13.468;2022-11-06T20:46:31;8.20;53.10
50560;DHT22;36510;52.610;13.468;2022-11-06T20:51:24;8.20;52.40
50560;DHT22;36510;52.610;13.468;2022-11-06T20:56:17;8.20;52.80
50560;DHT22;36510;52.610;13.468;2022-11-06T21:01:10;8.30;53.10
50560;DHT22;36510;52.610;13.468;2022-11-06T21:06:02;8.20;53.60
50560;DHT22;36510;52.610;13.468;2022-11-06T21:10:57;8.20;53.20
50560;DHT22;36510;52.610;13.468;2022-11-06T21:15:47;8.20;53.50
50560;DHT22;36510;52.610;13.468;2022-11-06T21:20:38;8.20;53.70
50560;DHT22;36510;52.610;13.468;2022-11-06T21:25:29;8.40;53.00
50560;DHT22;36510;52.610;13.468;2022-11-06T21:30:20;8.30;52.40
50560;DHT22;36510;52.610;13.468;2022-11-06T21:35:11;8.30;53.50
50560;DHT22;36510;52.610;13.468;2022-11-06T21:40:01;8.30;53.60
50560;DHT22;36510;52.610;13.468;2022-11-06T21:44:52;8.30;53.40
50560;DHT22;36510;52.610;13.468;2022-11-06T21:49:42;8.40;53.10
50560;DHT22;36510;52.610;13.468;2022-11-06T21:54:43;8.40;52.40
50560;DHT22;36510;52.610;13.468;2022-11-06T21:59:51;8.30;53.10
50560;DHT22;36510;52.610;13.468;2022-11-06T22:04:42;8.30;53.80
50560;DHT22;36510;52.610;13.468;2022-11-06T22:09:32;8.20;53.80
50560;DHT22;36510;52.610;13.468;2022-11-06T22:14:23;8.30;54.20
50560;DHT22;36510;52.610;13.468;2022-11-06T22:19:15;8.30;54.00
50560;DHT22;36510;52.610;13.468;2022-11-06T22:24:08;8.30;53.30
50560;DHT22;36510;52.610;13.468;2022-11-06T22:29:02;8.40;52.10
50560;DHT22;36510;52.610;13.468;2022-11-06T22:33:53;8.30;53.20
50560;DHT22;36510;52.610;13.468;2022-11-06T22:38:44;8.30;53.40
50560;DHT22;36510;52.610;13.468;2022-11-06T22:43:35;8.30;53.00
50560;DHT22;36510;52.610;13.468;2022-11-06T22:48:26;8.20;53.20
50560;DHT22;36510;52.610;13.468;2022-11-06T22:53:17;8.20;53.60
50560;DHT22;36510;52.610;13.468;2022-11-06T22:58:08;8.30;53.00
50560;DHT22;36510;52.610;13.468;2022-11-06T23:02:59;8.30;52.80
50560;DHT22;36510;52.610;13.468;2022-11-06T23:07:49;8.30;53.20
50560;DHT22;36510;52.610;13.468;2022-11-06T23:12:40;8.20;53.40
50560;DHT22;36510;52.610;13.468;2022-11-06T23:17:34;8.00;55.90
50560;DHT22;36510;52.610;13.468;2022-11-06T23:22:25;8.00;55.70
50560;DHT22;36510;52.610;13.468;2022-11-06T23:27:27;8.00;55.60
50560;DHT22;36510;52.610;13.468;2022-11-06T23:32:18;8.00;56.00
50560;DHT22;36510;52.610;13.468;2022-11-06T23:37:08;8.10;55.50
50560;DHT22;36510;52.610;13.468;2022-11-06T23:41:59;8.00;56.10
50560;DHT22;36510;52.610;13.468;2022-11-06T23:46:50;8.10;55.70
50560;DHT22;36510;52.610;13.468;2022-11-06T23:51:41;7.90;56.50
50560;DHT22;36510;52.610;13.468;2022-11-06T23:56:31;8.00;56.40
